Portada
METAR-TAF:

METAR-TAF

Aeroports :

Hobart, Austràlia

latitud: 42-50S, longitud: 147-29E, altitud: 4 m

Observació

L'informe es va fer fa 40 minuts, a les 16:00 UTC
Vent 4 kt del Nord/Nord-Oest
Temperatura 8°C
Humitat 87%
Pressió 1027 hPa
Visibilitat 10 km o més
sense núvols per sota de 1500 mi sense presència de cumulonimbus.

METAR: YMHB 191600Z 33004KT CAVOK 08/06 Q1027

Hora: 02:40 (16:40 UTC)

Pronòstic

L'informe es va fer fa 5 hores i 12 minuts, a les 11:28 UTC
Pronòstic vàlid del 19 a les 12 UTC al 20 a les 12 UTC
Vent 7 kt del Nord/Nord-Oest
Visibilitat 10 km o més
sense núvols per sota de 1500 mi sense presència de cumulonimbus.
A partir de les 20 a les 0300 UTC
Vent 10 kt del Nord
Visibilitat 10 km o més
sense núvols per sota de 1500 mi sense presència de cumulonimbus.

TAF: YMHB 191128Z 1912/2012 33007KT CAVOK FM200300 36010KT CAVOK

Observacions i pronòstics meteorològics de més de 4000 aeroports (METAR i TAF).

Les estacions disponibles són els punts grocs i vermells al mapa.

Posi el ratolí al punt desitjat per veure el nom de l'estació.

Feu clic per veure les observacions i els pronòstics meteorològics.

Per canviar el mapa: feu clic els botons verds amb una creu de color negre per apropar; al botó verd amb un guió per allunyar la imatge; o en les fletxes verdes per a mapes adjacents.


METAR-TAF: